sensor_id;sensor_type;location;lat;lon;timestamp;temperature;humidity
3298;DHT22;1661;53.572;10.174;2024-03-02T00:00:56;10.70;81.70
3298;DHT22;1661;53.572;10.174;2024-03-02T00:03:23;10.70;81.90
3298;DHT22;1661;53.572;10.174;2024-03-02T00:05:51;10.70;82.00
3298;DHT22;1661;53.572;10.174;2024-03-02T00:08:23;10.60;82.30
3298;DHT22;1661;53.572;10.174;2024-03-02T00:10:52;10.60;82.50
3298;DHT22;1661;53.572;10.174;2024-03-02T00:13:23;10.60;82.50
3298;DHT22;1661;53.572;10.174;2024-03-02T00:15:54;10.60;82.60
3298;DHT22;1661;53.572;10.174;2024-03-02T00:18:25;10.60;82.70
3298;DHT22;1661;53.572;10.174;2024-03-02T00:20:56;10.60;82.90
3298;DHT22;1661;53.572;10.174;2024-03-02T00:23:24;10.50;83.10
3298;DHT22;1661;53.572;10.174;2024-03-02T00:25:52;10.50;83.20
3298;DHT22;1661;53.572;10.174;2024-03-02T00:28:21;10.50;83.20
3298;DHT22;1661;53.572;10.174;2024-03-02T00:30:58;10.50;83.30
3298;DHT22;1661;53.572;10.174;2024-03-02T00:33:31;10.50;83.40
3298;DHT22;1661;53.572;10.174;2024-03-02T00:35:58;10.50;83.40
3298;DHT22;1661;53.572;10.174;2024-03-02T00:38:26;10.50;83.40
3298;DHT22;1661;53.572;10.174;2024-03-02T00:40:54;10.40;83.50
3298;DHT22;1661;53.572;10.174;2024-03-02T00:43:43;10.40;83.60
3298;DHT22;1661;53.572;10.174;2024-03-02T00:46:11;10.30;83.80
3298;DHT22;1661;53.572;10.174;2024-03-02T00:48:50;10.30;83.80
3298;DHT22;1661;53.572;10.174;2024-03-02T00:51:21;10.40;83.90
3298;DHT22;1661;53.572;10.174;2024-03-02T00:53:48;10.40;83.70
3298;DHT22;1661;53.572;10.174;2024-03-02T00:56:16;10.40;83.60
3298;DHT22;1661;53.572;10.174;2024-03-02T00:58:46;10.40;83.50
3298;DHT22;1661;53.572;10.174;2024-03-02T01:01:13;10.40;83.50
3298;DHT22;1661;53.572;10.174;2024-03-02T01:03:41;10.50;83.40
3298;DHT22;1661;53.572;10.174;2024-03-02T01:06:10;10.40;83.40
3298;DHT22;1661;53.572;10.174;2024-03-02T01:08:37;10.40;83.50
3298;DHT22;1661;53.572;10.174;2024-03-02T01:11:04;10.30;83.80
3298;DHT22;1661;53.572;10.174;2024-03-02T01:13:32;10.30;83.90
3298;DHT22;1661;53.572;10.174;2024-03-02T01:15:59;10.30;84.20
3298;DHT22;1661;53.572;10.174;2024-03-02T01:18:26;10.30;84.30
3298;DHT22;1661;53.572;10.174;2024-03-02T01:20:54;10.20;84.30
3298;DHT22;1661;53.572;10.174;2024-03-02T01:23:22;10.10;84.60
3298;DHT22;1661;53.572;10.174;2024-03-02T01:25:49;10.00;85.00
3298;DHT22;1661;53.572;10.174;2024-03-02T01:28:16;10.00;85.20
3298;DHT22;1661;53.572;10.174;2024-03-02T01:30:46;10.00;85.30
3298;DHT22;1661;53.572;10.174;2024-03-02T01:33:13;10.00;85.30
3298;DHT22;1661;53.572;10.174;2024-03-02T01:35:39;10.10;85.40
3298;DHT22;1661;53.572;10.174;2024-03-02T01:38:09;10.10;85.30
3298;DHT22;1661;53.572;10.174;2024-03-02T01:40:36;10.10;85.30
3298;DHT22;1661;53.572;10.174;2024-03-02T01:43:04;10.10;85.20
3298;DHT22;1661;53.572;10.174;2024-03-02T01:45:34;10.10;85.30
3298;DHT22;1661;53.572;10.174;2024-03-02T01:48:03;10.20;85.20
3298;DHT22;1661;53.572;10.174;2024-03-02T01:50:32;10.20;85.20
3298;DHT22;1661;53.572;10.174;2024-03-02T01:53:01;10.20;85.10
3298;DHT22;1661;53.572;10.174;2024-03-02T01:55:29;10.20;85.10
3298;DHT22;1661;53.572;10.174;2024-03-02T01:57:57;10.20;85.10
3298;DHT22;1661;53.572;10.174;2024-03-02T02:00:24;10.30;85.00
3298;DHT22;1661;53.572;10.174;2024-03-02T02:02:52;10.30;84.90
3298;DHT22;1661;53.572;10.174;2024-03-02T02:05:19;10.30;84.80
3298;DHT22;1661;53.572;10.174;2024-03-02T02:07:46;10.30;84.70
3298;DHT22;1661;53.572;10.174;2024-03-02T02:10:13;10.30;84.70
3298;DHT22;1661;53.572;10.174;2024-03-02T02:12:41;10.30;84.60
3298;DHT22;1661;53.572;10.174;2024-03-02T02:15:27;10.20;84.70
3298;DHT22;1661;53.572;10.174;2024-03-02T02:18:00;10.20;84.90
3298;DHT22;1661;53.572;10.174;2024-03-02T02:20:33;10.20;84.90
3298;DHT22;1661;53.572;10.174;2024-03-02T02:23:03;10.10;85.00
3298;DHT22;1661;53.572;10.174;2024-03-02T02:25:31;10.10;85.00
3298;DHT22;1661;53.572;10.174;2024-03-02T02:27:58;10.10;85.00
3298;DHT22;1661;53.572;10.174;2024-03-02T02:30:28;10.10;85.10
3298;DHT22;1661;53.572;10.174;2024-03-02T02:32:56;10.00;85.10
3298;DHT22;1661;53.572;10.174;2024-03-02T02:35:25;10.10;85.20
3298;DHT22;1661;53.572;10.174;2024-03-02T02:37:53;10.00;85.30
3298;DHT22;1661;53.572;10.174;2024-03-02T02:40:22;10.00;85.20
3298;DHT22;1661;53.572;10.174;2024-03-02T02:42:48;10.00;85.30
3298;DHT22;1661;53.572;10.174;2024-03-02T02:45:17;10.00;85.30
3298;DHT22;1661;53.572;10.174;2024-03-02T02:47:50;10.00;85.30
3298;DHT22;1661;53.572;10.174;2024-03-02T02:50:16;10.00;85.20
3298;DHT22;1661;53.572;10.174;2024-03-02T02:52:43;10.00;85.30
3298;DHT22;1661;53.572;10.174;2024-03-02T02:55:13;10.00;85.30
3298;DHT22;1661;53.572;10.174;2024-03-02T02:57:42;10.00;85.30
3298;DHT22;1661;53.572;10.174;2024-03-02T03:00:11;10.00;85.30
3298;DHT22;1661;53.572;10.174;2024-03-02T03:02:40;10.00;85.30
3298;DHT22;1661;53.572;10.174;2024-03-02T03:05:08;10.00;85.20
3298;DHT22;1661;53.572;10.174;2024-03-02T03:07:35;10.00;85.30
3298;DHT22;1661;53.572;10.174;2024-03-02T03:10:03;10.00;85.30
3298;DHT22;1661;53.572;10.174;2024-03-02T03:12:30;9.90;85.30
3298;DHT22;1661;53.572;10.174;2024-03-02T03:14:58;9.90;85.50
3298;DHT22;1661;53.572;10.174;2024-03-02T03:17:25;9.90;85.50
3298;DHT22;1661;53.572;10.174;2024-03-02T03:19:54;9.90;85.50
3298;DHT22;1661;53.572;10.174;2024-03-02T03:22:21;9.90;85.50
3298;DHT22;1661;53.572;10.174;2024-03-02T03:24:48;9.90;85.50
3298;DHT22;1661;53.572;10.174;2024-03-02T03:27:15;9.90;85.50
3298;DHT22;1661;53.572;10.174;2024-03-02T03:29:42;9.90;85.50
3298;DHT22;1661;53.572;10.174;2024-03-02T03:32:12;9.90;85.60
3298;DHT22;1661;53.572;10.174;2024-03-02T03:34:39;9.90;85.60
3298;DHT22;1661;53.572;10.174;2024-03-02T03:37:06;9.90;85.50
3298;DHT22;1661;53.572;10.174;2024-03-02T03:39:34;9.90;85.40
3298;DHT22;1661;53.572;10.174;2024-03-02T03:42:01;9.90;85.30
3298;DHT22;1661;53.572;10.174;2024-03-02T03:44:28;9.90;85.30
3298;DHT22;1661;53.572;10.174;2024-03-02T03:46:54;9.90;85.30
3298;DHT22;1661;53.572;10.174;2024-03-02T03:49:22;9.90;85.20
3298;DHT22;1661;53.572;10.174;2024-03-02T03:51:52;9.90;85.20
3298;DHT22;1661;53.572;10.174;2024-03-02T03:54:19;9.90;85.20
3298;DHT22;1661;53.572;10.174;2024-03-02T03:56:45;9.90;85.20
3298;DHT22;1661;53.572;10.174;2024-03-02T03:59:12;9.80;85.00
3298;DHT22;1661;53.572;10.174;2024-03-02T04:01:39;9.80;85.20
3298;DHT22;1661;53.572;10.174;2024-03-02T04:04:06;9.80;85.30
3298;DHT22;1661;53.572;10.174;2024-03-02T04:06:34;9.80;85.40
3298;DHT22;1661;53.572;10.174;2024-03-02T04:09:01;9.80;85.40
3298;DHT22;1661;53.572;10.174;2024-03-02T04:11:29;9.80;85.30
3298;DHT22;1661;53.572;10.174;2024-03-02T04:13:56;9.80;85.20
3298;DHT22;1661;53.572;10.174;2024-03-02T04:16:23;9.80;85.20
3298;DHT22;1661;53.572;10.174;2024-03-02T04:18:49;9.80;85.30
3298;DHT22;1661;53.572;10.174;2024-03-02T04:21:15;9.70;85.40
3298;DHT22;1661;53.572;10.174;2024-03-02T04:23:43;9.80;85.40
3298;DHT22;1661;53.572;10.174;2024-03-02T04:26:09;9.70;85.40
3298;DHT22;1661;53.572;10.174;2024-03-02T04:28:36;9.70;85.40
3298;DHT22;1661;53.572;10.174;2024-03-02T04:31:03;9.70;85.40
3298;DHT22;1661;53.572;10.174;2024-03-02T04:33:32;9.70;85.50
3298;DHT22;1661;53.572;10.174;2024-03-02T04:35:59;9.70;85.40
3298;DHT22;1661;53.572;10.174;2024-03-02T04:38:25;9.70;85.40
3298;DHT22;1661;53.572;10.174;2024-03-02T04:40:55;9.70;85.30
3298;DHT22;1661;53.572;10.174;2024-03-02T04:43:22;9.80;85.20
3298;DHT22;1661;53.572;10.174;2024-03-02T04:45:49;9.80;85.00
3298;DHT22;1661;53.572;10.174;2024-03-02T04:48:16;9.80;85.00
3298;DHT22;1661;53.572;10.174;2024-03-02T04:50:42;9.80;84.80
3298;DHT22;1661;53.572;10.174;2024-03-02T04:53:09;9.80;84.70
3298;DHT22;1661;53.572;10.174;2024-03-02T04:55:36;9.80;84.60
3298;DHT22;1661;53.572;10.174;2024-03-02T04:58:30;9.90;84.40
3298;DHT22;1661;53.572;10.174;2024-03-02T05:00:57;9.90;84.30
3298;DHT22;1661;53.572;10.174;2024-03-02T05:03:24;9.90;84.20
3298;DHT22;1661;53.572;10.174;2024-03-02T05:05:50;9.90;84.00
3298;DHT22;1661;53.572;10.174;2024-03-02T05:08:17;9.90;83.90
3298;DHT22;1661;53.572;10.174;2024-03-02T05:10:44;9.90;83.90
3298;DHT22;1661;53.572;10.174;2024-03-02T05:13:11;9.90;83.90
3298;DHT22;1661;53.572;10.174;2024-03-02T05:15:39;9.90;83.80
3298;DHT22;1661;53.572;10.174;2024-03-02T05:18:06;9.90;83.80
3298;DHT22;1661;53.572;10.174;2024-03-02T05:20:33;9.90;83.70
3298;DHT22;1661;53.572;10.174;2024-03-02T05:22:59;9.80;83.70
3298;DHT22;1661;53.572;10.174;2024-03-02T05:25:26;9.90;83.70
3298;DHT22;1661;53.572;10.174;2024-03-02T05:27:53;9.80;83.70
3298;DHT22;1661;53.572;10.174;2024-03-02T05:30:20;9.90;83.60
3298;DHT22;1661;53.572;10.174;2024-03-02T05:32:48;9.90;83.60
3298;DHT22;1661;53.572;10.174;2024-03-02T05:35:15;9.90;83.50
3298;DHT22;1661;53.572;10.174;2024-03-02T05:37:41;9.90;83.40
3298;DHT22;1661;53.572;10.174;2024-03-02T05:40:09;9.90;83.40
3298;DHT22;1661;53.572;10.174;2024-03-02T05:42:36;9.90;83.30
3298;DHT22;1661;53.572;10.174;2024-03-02T05:45:04;9.90;83.30
3298;DHT22;1661;53.572;10.174;2024-03-02T05:47:31;9.90;83.30
3298;DHT22;1661;53.572;10.174;2024-03-02T05:50:00;9.80;83.30
3298;DHT22;1661;53.572;10.174;2024-03-02T05:52:26;9.80;83.20
3298;DHT22;1661;53.572;10.174;2024-03-02T05:54:53;9.80;83.30
3298;DHT22;1661;53.572;10.174;2024-03-02T05:57:20;9.80;83.30
3298;DHT22;1661;53.572;10.174;2024-03-02T06:00:02;9.70;83.40
3298;DHT22;1661;53.572;10.174;2024-03-02T06:02:30;9.70;83.40
3298;DHT22;1661;53.572;10.174;2024-03-02T06:04:57;9.70;83.50
3298;DHT22;1661;53.572;10.174;2024-03-02T06:07:25;9.70;83.60
3298;DHT22;1661;53.572;10.174;2024-03-02T06:09:52;9.60;83.70
3298;DHT22;1661;53.572;10.174;2024-03-02T06:12:19;9.60;83.80
3298;DHT22;1661;53.572;10.174;2024-03-02T06:14:46;9.60;83.90
3298;DHT22;1661;53.572;10.174;2024-03-02T06:17:12;9.60;84.00
3298;DHT22;1661;53.572;10.174;2024-03-02T06:19:39;9.60;84.00
3298;DHT22;1661;53.572;10.174;2024-03-02T06:22:06;9.60;84.00
3298;DHT22;1661;53.572;10.174;2024-03-02T06:24:37;9.60;84.00
3298;DHT22;1661;53.572;10.174;2024-03-02T06:27:04;9.50;83.90
3298;DHT22;1661;53.572;10.174;2024-03-02T06:29:32;9.60;83.90
3298;DHT22;1661;53.572;10.174;2024-03-02T06:31:59;9.50;84.00
3298;DHT22;1661;53.572;10.174;2024-03-02T06:34:26;9.60;84.00
3298;DHT22;1661;53.572;10.174;2024-03-02T06:36:53;9.60;84.10
3298;DHT22;1661;53.572;10.174;2024-03-02T06:39:20;9.60;84.30
3298;DHT22;1661;53.572;10.174;2024-03-02T06:41:48;9.50;84.30
3298;DHT22;1661;53.572;10.174;2024-03-02T06:44:15;9.60;84.30
3298;DHT22;1661;53.572;10.174;2024-03-02T06:46:41;9.60;84.30
3298;DHT22;1661;53.572;10.174;2024-03-02T06:49:08;9.60;84.30
3298;DHT22;1661;53.572;10.174;2024-03-02T06:51:36;9.60;84.30
3298;DHT22;1661;53.572;10.174;2024-03-02T06:54:03;9.60;84.30
3298;DHT22;1661;53.572;10.174;2024-03-02T06:56:30;9.50;84.20
3298;DHT22;1661;53.572;10.174;2024-03-02T06:59:03;9.50;84.30
3298;DHT22;1661;53.572;10.174;2024-03-02T07:01:29;9.50;84.30
3298;DHT22;1661;53.572;10.174;2024-03-02T07:03:56;9.50;84.30
3298;DHT22;1661;53.572;10.174;2024-03-02T07:06:23;9.50;84.30
3298;DHT22;1661;53.572;10.174;2024-03-02T07:08:50;9.50;84.30
3298;DHT22;1661;53.572;10.174;2024-03-02T07:11:17;9.50;84.20
3298;DHT22;1661;53.572;10.174;2024-03-02T07:13:44;9.50;84.20
3298;DHT22;1661;53.572;10.174;2024-03-02T07:16:12;9.50;84.10
3298;DHT22;1661;53.572;10.174;2024-03-02T07:18:53;9.50;84.20
3298;DHT22;1661;53.572;10.174;2024-03-02T07:21:21;9.50;84.30
3298;DHT22;1661;53.572;10.174;2024-03-02T07:23:48;9.60;84.30
3298;DHT22;1661;53.572;10.174;2024-03-02T07:26:14;9.50;84.10
3298;DHT22;1661;53.572;10.174;2024-03-02T07:28:42;9.60;84.20
3298;DHT22;1661;53.572;10.174;2024-03-02T07:31:09;9.60;84.20
3298;DHT22;1661;53.572;10.174;2024-03-02T07:33:37;9.70;84.00
3298;DHT22;1661;53.572;10.174;2024-03-02T07:36:07;9.70;83.80
3298;DHT22;1661;53.572;10.174;2024-03-02T07:38:34;9.70;83.80
3298;DHT22;1661;53.572;10.174;2024-03-02T07:41:01;9.70;83.70
3298;DHT22;1661;53.572;10.174;2024-03-02T07:43:28;9.70;83.60
3298;DHT22;1661;53.572;10.174;2024-03-02T07:45:55;9.80;83.50
3298;DHT22;1661;53.572;10.174;2024-03-02T07:48:22;9.80;83.30
3298;DHT22;1661;53.572;10.174;2024-03-02T07:50:53;9.90;83.30
3298;DHT22;1661;53.572;10.174;2024-03-02T07:53:19;10.00;83.30
3298;DHT22;1661;53.572;10.174;2024-03-02T07:55:46;10.00;83.00
3298;DHT22;1661;53.572;10.174;2024-03-02T07:58:13;10.00;83.00
3298;DHT22;1661;53.572;10.174;2024-03-02T08:00:40;10.10;83.00
3298;DHT22;1661;53.572;10.174;2024-03-02T08:03:07;10.10;82.50
3298;DHT22;1661;53.572;10.174;2024-03-02T08:05:36;10.20;82.40
3298;DHT22;1661;53.572;10.174;2024-03-02T08:08:05;10.20;82.30
3298;DHT22;1661;53.572;10.174;2024-03-02T08:10:35;10.30;82.30
3298;DHT22;1661;53.572;10.174;2024-03-02T08:13:02;10.40;81.90
3298;DHT22;1661;53.572;10.174;2024-03-02T08:15:28;10.40;81.30
3298;DHT22;1661;53.572;10.174;2024-03-02T08:18:00;10.40;80.90
3298;DHT22;1661;53.572;10.174;2024-03-02T08:20:27;10.40;80.60
3298;DHT22;1661;53.572;10.174;2024-03-02T08:22:54;10.50;80.30
3298;DHT22;1661;53.572;10.174;2024-03-02T08:25:22;10.60;79.90
3298;DHT22;1661;53.572;10.174;2024-03-02T08:27:49;10.50;79.20
3298;DHT22;1661;53.572;10.174;2024-03-02T08:30:16;10.50;79.20
3298;DHT22;1661;53.572;10.174;2024-03-02T08:32:46;10.50;78.80
3298;DHT22;1661;53.572;10.174;2024-03-02T08:35:13;10.60;79.10
3298;DHT22;1661;53.572;10.174;2024-03-02T08:37:41;10.60;78.80
3298;DHT22;1661;53.572;10.174;2024-03-02T08:40:09;10.70;78.80
3298;DHT22;1661;53.572;10.174;2024-03-02T08:42:38;10.80;78.50
3298;DHT22;1661;53.572;10.174;2024-03-02T08:45:06;10.90;78.10
3298;DHT22;1661;53.572;10.174;2024-03-02T08:47:33;10.90;78.00
3298;DHT22;1661;53.572;10.174;2024-03-02T08:50:00;11.00;77.80
3298;DHT22;1661;53.572;10.174;2024-03-02T08:52:27;11.10;77.20
3298;DHT22;1661;53.572;10.174;2024-03-02T08:54:54;11.10;77.10
3298;DHT22;1661;53.572;10.174;2024-03-02T08:57:20;11.10;76.70
3298;DHT22;1661;53.572;10.174;2024-03-02T08:59:48;11.00;77.20
3298;DHT22;1661;53.572;10.174;2024-03-02T09:02:15;11.10;77.50
3298;DHT22;1661;53.572;10.174;2024-03-02T09:04:42;11.20;77.60
3298;DHT22;1661;53.572;10.174;2024-03-02T09:07:09;11.30;77.10
3298;DHT22;1661;53.572;10.174;2024-03-02T09:09:36;11.40;76.90
3298;DHT22;1661;53.572;10.174;2024-03-02T09:12:04;11.50;76.70
3298;DHT22;1661;53.572;10.174;2024-03-02T09:14:31;11.50;76.20
3298;DHT22;1661;53.572;10.174;2024-03-02T09:16:59;11.60;76.10
3298;DHT22;1661;53.572;10.174;2024-03-02T09:19:26;11.60;76.00
3298;DHT22;1661;53.572;10.174;2024-03-02T09:21:53;11.70;75.80
3298;DHT22;1661;53.572;10.174;2024-03-02T09:24:21;11.70;76.20
3298;DHT22;1661;53.572;10.174;2024-03-02T09:26:47;11.70;75.10
3298;DHT22;1661;53.572;10.174;2024-03-02T09:29:14;11.70;75.20
3298;DHT22;1661;53.572;10.174;2024-03-02T09:31:41;11.80;75.80
3298;DHT22;1661;53.572;10.174;2024-03-02T09:34:09;12.00;76.50
3298;DHT22;1661;53.572;10.174;2024-03-02T09:36:36;12.20;75.00
3298;DHT22;1661;53.572;10.174;2024-03-02T09:39:03;12.40;74.50
3298;DHT22;1661;53.572;10.174;2024-03-02T09:41:30;12.60;74.30
3298;DHT22;1661;53.572;10.174;2024-03-02T09:43:57;12.80;73.80
3298;DHT22;1661;53.572;10.174;2024-03-02T09:46:24;13.00;72.80
3298;DHT22;1661;53.572;10.174;2024-03-02T09:48:51;13.10;72.10
3298;DHT22;1661;53.572;10.174;2024-03-02T09:51:19;13.20;71.10
3298;DHT22;1661;53.572;10.174;2024-03-02T09:53:47;13.30;70.90
3298;DHT22;1661;53.572;10.174;2024-03-02T09:56:14;13.50;70.70
3298;DHT22;1661;53.572;10.174;2024-03-02T09:58:41;13.60;70.10
3298;DHT22;1661;53.572;10.174;2024-03-02T10:01:09;13.70;70.10
3298;DHT22;1661;53.572;10.174;2024-03-02T10:03:37;13.80;69.60
3298;DHT22;1661;53.572;10.174;2024-03-02T10:06:22;13.90;69.20
3298;DHT22;1661;53.572;10.174;2024-03-02T10:08:50;13.90;68.70
3298;DHT22;1661;53.572;10.174;2024-03-02T10:11:27;14.00;68.30
3298;DHT22;1661;53.572;10.174;2024-03-02T10:14:05;14.20;68.10
3298;DHT22;1661;53.572;10.174;2024-03-02T10:16:34;14.40;67.60
3298;DHT22;1661;53.572;10.174;2024-03-02T10:19:15;14.50;66.80
3298;DHT22;1661;53.572;10.174;2024-03-02T10:21:44;14.60;67.10
3298;DHT22;1661;53.572;10.174;2024-03-02T10:24:11;14.70;67.30
3298;DHT22;1661;53.572;10.174;2024-03-02T10:26:38;14.70;65.20
3298;DHT22;1661;53.572;10.174;2024-03-02T10:29:07;14.80;65.10
3298;DHT22;1661;53.572;10.174;2024-03-02T10:31:37;15.00;65.30
3298;DHT22;1661;53.572;10.174;2024-03-02T10:34:04;15.10;64.80
3298;DHT22;1661;53.572;10.174;2024-03-02T10:36:32;15.20;64.40
3298;DHT22;1661;53.572;10.174;2024-03-02T10:39:04;15.30;64.00
3298;DHT22;1661;53.572;10.174;2024-03-02T10:41:34;15.50;64.00
3298;DHT22;1661;53.572;10.174;2024-03-02T10:44:04;15.60;62.70
3298;DHT22;1661;53.572;10.174;2024-03-02T10:46:38;15.60;62.40
3298;DHT22;1661;53.572;10.174;2024-03-02T10:49:05;15.70;62.40
3298;DHT22;1661;53.572;10.174;2024-03-02T10:51:34;15.50;62.10
3298;DHT22;1661;53.572;10.174;2024-03-02T10:54:04;15.40;62.50
3298;DHT22;1661;53.572;10.174;2024-03-02T10:56:33;15.40;63.00
3298;DHT22;1661;53.572;10.174;2024-03-02T10:59:05;15.40;62.90
3298;DHT22;1661;53.572;10.174;2024-03-02T11:01:33;15.50;62.80
3298;DHT22;1661;53.572;10.174;2024-03-02T11:04:02;15.50;62.60
3298;DHT22;1661;53.572;10.174;2024-03-02T11:06:30;15.60;62.50
3298;DHT22;1661;53.572;10.174;2024-03-02T11:09:04;15.60;62.10
3298;DHT22;1661;53.572;10.174;2024-03-02T11:11:37;15.50;62.60
3298;DHT22;1661;53.572;10.174;2024-03-02T11:14:07;15.50;62.70
3298;DHT22;1661;53.572;10.174;2024-03-02T11:16:38;15.40;62.60
3298;DHT22;1661;53.572;10.174;2024-03-02T11:19:10;15.50;63.00
3298;DHT22;1661;53.572;10.174;2024-03-02T11:21:37;15.70;62.90
3298;DHT22;1661;53.572;10.174;2024-03-02T11:24:31;15.90;62.70
3298;DHT22;1661;53.572;10.174;2024-03-02T11:27:01;16.00;61.50
3298;DHT22;1661;53.572;10.174;2024-03-02T11:29:43;16.00;61.30
3298;DHT22;1661;53.572;10.174;2024-03-02T11:32:15;16.00;61.10
3298;DHT22;1661;53.572;10.174;2024-03-02T11:34:44;16.00;60.90
3298;DHT22;1661;53.572;10.174;2024-03-02T11:37:15;15.90;60.70
3298;DHT22;1661;53.572;10.174;2024-03-02T11:39:44;15.90;60.60
3298;DHT22;1661;53.572;10.174;2024-03-02T11:42:13;15.90;60.90
3298;DHT22;1661;53.572;10.174;2024-03-02T11:44:42;15.90;61.00
3298;DHT22;1661;53.572;10.174;2024-03-02T11:47:11;15.90;61.40
3298;DHT22;1661;53.572;10.174;2024-03-02T11:49:40;15.90;60.90
3298;DHT22;1661;53.572;10.174;2024-03-02T11:52:08;15.60;61.10
3298;DHT22;1661;53.572;10.174;2024-03-02T11:54:36;15.40;61.80
3298;DHT22;1661;53.572;10.174;2024-03-02T11:57:07;15.30;62.40
3298;DHT22;1661;53.572;10.174;2024-03-02T11:59:34;15.30;62.00
3298;DHT22;1661;53.572;10.174;2024-03-02T12:02:01;15.20;62.00
3298;DHT22;1661;53.572;10.174;2024-03-02T12:04:29;15.10;62.50
3298;DHT22;1661;53.572;10.174;2024-03-02T12:06:58;14.90;62.80
3298;DHT22;1661;53.572;10.174;2024-03-02T12:09:26;14.80;63.20
3298;DHT22;1661;53.572;10.174;2024-03-02T12:12:05;14.70;63.60
3298;DHT22;1661;53.572;10.174;2024-03-02T12:14:33;14.70;63.80
3298;DHT22;1661;53.572;10.174;2024-03-02T12:17:01;14.80;64.00
3298;DHT22;1661;53.572;10.174;2024-03-02T12:19:30;14.90;63.90
3298;DHT22;1661;53.572;10.174;2024-03-02T12:21:57;14.90;63.50
3298;DHT22;1661;53.572;10.174;2024-03-02T12:24:26;14.90;64.00
3298;DHT22;1661;53.572;10.174;2024-03-02T12:26:55;14.90;63.70
3298;DHT22;1661;53.572;10.174;2024-03-02T12:29:24;14.90;63.60
3298;DHT22;1661;53.572;10.174;2024-03-02T12:31:51;14.90;63.40
3298;DHT22;1661;53.572;10.174;2024-03-02T12:34:19;14.90;64.20
3298;DHT22;1661;53.572;10.174;2024-03-02T12:36:46;15.00;64.70
3298;DHT22;1661;53.572;10.174;2024-03-02T12:39:16;15.00;64.10
3298;DHT22;1661;53.572;10.174;2024-03-02T12:41:46;15.00;64.00
3298;DHT22;1661;53.572;10.174;2024-03-02T12:44:13;15.10;64.10
3298;DHT22;1661;53.572;10.174;2024-03-02T12:46:41;15.10;63.20
3298;DHT22;1661;53.572;10.174;2024-03-02T12:49:10;15.00;63.20
3298;DHT22;1661;53.572;10.174;2024-03-02T12:51:38;15.00;63.80
3298;DHT22;1661;53.572;10.174;2024-03-02T12:54:06;14.90;63.30
3298;DHT22;1661;53.572;10.174;2024-03-02T12:56:33;14.80;63.60
3298;DHT22;1661;53.572;10.174;2024-03-02T12:59:01;14.80;63.90
3298;DHT22;1661;53.572;10.174;2024-03-02T13:01:28;14.80;63.40
3298;DHT22;1661;53.572;10.174;2024-03-02T13:03:56;14.80;63.70
3298;DHT22;1661;53.572;10.174;2024-03-02T13:06:24;14.80;63.90
3298;DHT22;1661;53.572;10.174;2024-03-02T13:08:59;14.80;63.60
3298;DHT22;1661;53.572;10.174;2024-03-02T13:11:26;14.70;63.70
3298;DHT22;1661;53.572;10.174;2024-03-02T13:13:52;14.70;63.90
3298;DHT22;1661;53.572;10.174;2024-03-02T13:16:19;14.80;63.60
3298;DHT22;1661;53.572;10.174;2024-03-02T13:18:46;14.80;63.80
3298;DHT22;1661;53.572;10.174;2024-03-02T13:21:15;14.90;63.50
3298;DHT22;1661;53.572;10.174;2024-03-02T13:23:41;14.90;64.00
3298;DHT22;1661;53.572;10.174;2024-03-02T13:26:08;14.90;63.80
3298;DHT22;1661;53.572;10.174;2024-03-02T13:28:38;14.90;63.60
3298;DHT22;1661;53.572;10.174;2024-03-02T13:31:05;15.00;63.80
3298;DHT22;1661;53.572;10.174;2024-03-02T13:33:32;15.10;63.90
3298;DHT22;1661;53.572;10.174;2024-03-02T13:35:59;15.10;63.20
3298;DHT22;1661;53.572;10.174;2024-03-02T13:38:33;15.20;63.00
3298;DHT22;1661;53.572;10.174;2024-03-02T13:41:01;15.30;63.30
3298;DHT22;1661;53.572;10.174;2024-03-02T13:43:28;15.20;62.90
3298;DHT22;1661;53.572;10.174;2024-03-02T13:45:57;15.20;63.10
3298;DHT22;1661;53.572;10.174;2024-03-02T13:48:24;15.30;63.50
3298;DHT22;1661;53.572;10.174;2024-03-02T13:50:52;15.30;62.90
3298;DHT22;1661;53.572;10.174;2024-03-02T13:53:19;15.30;62.50
3298;DHT22;1661;53.572;10.174;2024-03-02T13:55:49;15.30;62.80
3298;DHT22;1661;53.572;10.174;2024-03-02T13:58:16;15.20;63.70
3298;DHT22;1661;53.572;10.174;2024-03-02T14:00:44;15.00;63.20
3298;DHT22;1661;53.572;10.174;2024-03-02T14:03:14;15.00;63.60
3298;DHT22;1661;53.572;10.174;2024-03-02T14:05:41;15.10;63.20
3298;DHT22;1661;53.572;10.174;2024-03-02T14:08:09;15.10;63.50
3298;DHT22;1661;53.572;10.174;2024-03-02T14:10:36;15.10;63.60
3298;DHT22;1661;53.572;10.174;2024-03-02T14:13:04;15.10;63.50
3298;DHT22;1661;53.572;10.174;2024-03-02T14:15:31;15.30;63.50
3298;DHT22;1661;53.572;10.174;2024-03-02T14:17:58;15.50;63.10
3298;DHT22;1661;53.572;10.174;2024-03-02T14:20:25;15.70;62.60
3298;DHT22;1661;53.572;10.174;2024-03-02T14:22:52;15.90;62.10
3298;DHT22;1661;53.572;10.174;2024-03-02T14:25:19;16.00;61.80
3298;DHT22;1661;53.572;10.174;2024-03-02T14:27:45;16.20;61.30
3298;DHT22;1661;53.572;10.174;2024-03-02T14:30:17;16.20;60.90
3298;DHT22;1661;53.572;10.174;2024-03-02T14:32:46;16.30;60.70
3298;DHT22;1661;53.572;10.174;2024-03-02T14:35:13;16.40;60.30
3298;DHT22;1661;53.572;10.174;2024-03-02T14:37:40;16.70;60.00
3298;DHT22;1661;53.572;10.174;2024-03-02T14:40:08;16.80;59.20
3298;DHT22;1661;53.572;10.174;2024-03-02T14:42:36;16.90;59.20
3298;DHT22;1661;53.572;10.174;2024-03-02T14:45:03;17.00;59.00
3298;DHT22;1661;53.572;10.174;2024-03-02T14:47:33;17.20;59.00
3298;DHT22;1661;53.572;10.174;2024-03-02T14:50:01;17.40;58.40
3298;DHT22;1661;53.572;10.174;2024-03-02T14:52:31;17.50;57.60
3298;DHT22;1661;53.572;10.174;2024-03-02T14:54:58;17.60;57.90
3298;DHT22;1661;53.572;10.174;2024-03-02T14:57:25;17.60;57.20
3298;DHT22;1661;53.572;10.174;2024-03-02T14:59:51;17.40;57.20
3298;DHT22;1661;53.572;10.174;2024-03-02T15:02:19;17.40;58.40
3298;DHT22;1661;53.572;10.174;2024-03-02T15:04:48;17.40;58.00
3298;DHT22;1661;53.572;10.174;2024-03-02T15:07:15;17.30;58.50
3298;DHT22;1661;53.572;10.174;2024-03-02T15:09:42;17.10;58.70
3298;DHT22;1661;53.572;10.174;2024-03-02T15:12:09;17.10;58.80
3298;DHT22;1661;53.572;10.174;2024-03-02T15:14:38;17.10;59.80
3298;DHT22;1661;53.572;10.174;2024-03-02T15:17:11;17.10;60.40
3298;DHT22;1661;53.572;10.174;2024-03-02T15:19:40;17.00;60.60
3298;DHT22;1661;53.572;10.174;2024-03-02T15:22:08;17.00;60.80
3298;DHT22;1661;53.572;10.174;2024-03-02T15:24:35;16.90;59.60
3298;DHT22;1661;53.572;10.174;2024-03-02T15:27:02;16.80;60.40
3298;DHT22;1661;53.572;10.174;2024-03-02T15:29:30;16.80;60.30
3298;DHT22;1661;53.572;10.174;2024-03-02T15:31:57;16.70;60.70
3298;DHT22;1661;53.572;10.174;2024-03-02T15:34:24;16.70;60.90
3298;DHT22;1661;53.572;10.174;2024-03-02T15:36:51;16.70;60.90
3298;DHT22;1661;53.572;10.174;2024-03-02T15:39:19;16.60;61.30
3298;DHT22;1661;53.572;10.174;2024-03-02T15:41:46;16.60;61.90
3298;DHT22;1661;53.572;10.174;2024-03-02T15:44:13;16.60;62.60
3298;DHT22;1661;53.572;10.174;2024-03-02T15:46:40;16.60;62.40
3298;DHT22;1661;53.572;10.174;2024-03-02T15:49:07;16.60;62.30
3298;DHT22;1661;53.572;10.174;2024-03-02T15:51:34;16.50;60.70
3298;DHT22;1661;53.572;10.174;2024-03-02T15:54:06;16.20;60.30
3298;DHT22;1661;53.572;10.174;2024-03-02T15:56:34;15.80;60.40